sensor_id;sensor_type;location;lat;lon;timestamp;P1;durP1;ratioP1;P2;durP2;ratioP2
20844;SDS011;10583;49.084;8.646;2022-12-07T00:01:16;10.27;;;10.27;;
20844;SDS011;10583;49.084;8.646;2022-12-07T00:03:45;10.57;;;10.57;;
20844;SDS011;10583;49.084;8.646;2022-12-07T00:06:14;10.37;;;10.37;;
20844;SDS011;10583;49.084;8.646;2022-12-07T00:08:41;12.13;;;12.13;;
20844;SDS011;10583;49.084;8.646;2022-12-07T00:11:09;10.30;;;10.30;;
20844;SDS011;10583;49.084;8.646;2022-12-07T00:13:37;10.53;;;10.53;;
20844;SDS011;10583;49.084;8.646;2022-12-07T00:16:05;9.80;;;9.80;;
20844;SDS011;10583;49.084;8.646;2022-12-07T00:18:35;11.57;;;11.57;;
20844;SDS011;10583;49.084;8.646;2022-12-07T00:21:02;10.40;;;10.40;;
20844;SDS011;10583;49.084;8.646;2022-12-07T00:23:32;9.77;;;9.77;;
20844;SDS011;10583;49.084;8.646;2022-12-07T00:26:02;9.50;;;9.50;;
20844;SDS011;10583;49.084;8.646;2022-12-07T00:28:30;9.80;;;9.80;;
20844;SDS011;10583;49.084;8.646;2022-12-07T00:30:59;9.30;;;9.30;;
20844;SDS011;10583;49.084;8.646;2022-12-07T00:33:27;9.03;;;9.03;;
20844;SDS011;10583;49.084;8.646;2022-12-07T00:35:56;9.30;;;9.30;;
20844;SDS011;10583;49.084;8.646;2022-12-07T00:38:23;10.00;;;10.00;;
20844;SDS011;10583;49.084;8.646;2022-12-07T00:40:53;10.63;;;10.63;;
20844;SDS011;10583;49.084;8.646;2022-12-07T00:43:21;9.33;;;9.33;;
20844;SDS011;10583;49.084;8.646;2022-12-07T00:45:48;9.87;;;9.87;;
20844;SDS011;10583;49.084;8.646;2022-12-07T00:48:15;11.67;;;11.67;;
20844;SDS011;10583;49.084;8.646;2022-12-07T00:50:41;10.50;;;10.50;;
20844;SDS011;10583;49.084;8.646;2022-12-07T00:53:09;10.87;;;10.87;;
20844;SDS011;10583;49.084;8.646;2022-12-07T00:55:36;11.17;;;11.17;;
20844;SDS011;10583;49.084;8.646;2022-12-07T00:58:03;10.40;;;10.40;;
20844;SDS011;10583;49.084;8.646;2022-12-07T01:00:30;10.60;;;10.60;;
20844;SDS011;10583;49.084;8.646;2022-12-07T01:02:57;11.63;;;11.63;;
20844;SDS011;10583;49.084;8.646;2022-12-07T01:05:24;10.70;;;10.70;;
20844;SDS011;10583;49.084;8.646;2022-12-07T01:07:51;10.53;;;10.53;;
20844;SDS011;10583;49.084;8.646;2022-12-07T01:10:19;11.60;;;11.60;;
20844;SDS011;10583;49.084;8.646;2022-12-07T01:12:46;11.00;;;11.00;;
20844;SDS011;10583;49.084;8.646;2022-12-07T01:15:12;12.30;;;12.30;;
20844;SDS011;10583;49.084;8.646;2022-12-07T01:17:39;11.87;;;11.87;;
20844;SDS011;10583;49.084;8.646;2022-12-07T01:20:06;11.87;;;11.87;;
20844;SDS011;10583;49.084;8.646;2022-12-07T01:22:35;12.27;;;12.27;;
20844;SDS011;10583;49.084;8.646;2022-12-07T01:25:03;11.57;;;11.57;;
20844;SDS011;10583;49.084;8.646;2022-12-07T01:27:31;11.00;;;11.00;;
20844;SDS011;10583;49.084;8.646;2022-12-07T01:29:58;10.97;;;10.97;;
20844;SDS011;10583;49.084;8.646;2022-12-07T01:32:25;11.43;;;11.43;;
20844;SDS011;10583;49.084;8.646;2022-12-07T01:34:53;12.80;;;12.70;;
20844;SDS011;10583;49.084;8.646;2022-12-07T01:37:19;12.00;;;12.00;;
20844;SDS011;10583;49.084;8.646;2022-12-07T01:39:48;11.70;;;11.70;;
20844;SDS011;10583;49.084;8.646;2022-12-07T01:42:15;12.20;;;12.20;;
20844;SDS011;10583;49.084;8.646;2022-12-07T01:47:50;12.93;;;12.93;;
20844;SDS011;10583;49.084;8.646;2022-12-07T01:50:19;13.90;;;13.80;;
20844;SDS011;10583;49.084;8.646;2022-12-07T01:52:50;13.53;;;13.53;;
20844;SDS011;10583;49.084;8.646;2022-12-07T01:55:19;13.43;;;13.43;;
20844;SDS011;10583;49.084;8.646;2022-12-07T01:57:47;14.10;;;14.00;;
20844;SDS011;10583;49.084;8.646;2022-12-07T02:00:15;14.10;;;14.00;;
20844;SDS011;10583;49.084;8.646;2022-12-07T02:02:44;15.77;;;15.67;;
20844;SDS011;10583;49.084;8.646;2022-12-07T02:05:15;16.63;;;16.53;;
20844;SDS011;10583;49.084;8.646;2022-12-07T02:07:44;15.93;;;15.83;;
20844;SDS011;10583;49.084;8.646;2022-12-07T02:10:14;17.60;;;17.50;;
20844;SDS011;10583;49.084;8.646;2022-12-07T02:12:42;15.13;;;15.03;;
20844;SDS011;10583;49.084;8.646;2022-12-07T02:15:11;16.10;;;16.00;;
20844;SDS011;10583;49.084;8.646;2022-12-07T02:17:40;17.63;;;17.53;;
20844;SDS011;10583;49.084;8.646;2022-12-07T02:20:20;17.00;;;16.90;;
20844;SDS011;10583;49.084;8.646;2022-12-07T02:25:55;15.33;;;15.23;;
20844;SDS011;10583;49.084;8.646;2022-12-07T02:28:49;14.40;;;14.30;;
20844;SDS011;10583;49.084;8.646;2022-12-07T02:31:25;13.63;;;13.57;;
20844;SDS011;10583;49.084;8.646;2022-12-07T02:33:57;13.73;;;13.73;;
20844;SDS011;10583;49.084;8.646;2022-12-07T02:36:32;13.57;;;13.47;;
20844;SDS011;10583;49.084;8.646;2022-12-07T02:39:06;13.90;;;13.80;;
20844;SDS011;10583;49.084;8.646;2022-12-07T02:41:38;13.83;;;13.77;;
20844;SDS011;10583;49.084;8.646;2022-12-07T02:44:10;13.03;;;13.03;;
20844;SDS011;10583;49.084;8.646;2022-12-07T02:46:40;12.60;;;12.50;;
20844;SDS011;10583;49.084;8.646;2022-12-07T02:49:08;12.83;;;12.83;;
20844;SDS011;10583;49.084;8.646;2022-12-07T02:51:38;13.07;;;13.07;;
20844;SDS011;10583;49.084;8.646;2022-12-07T02:54:08;14.17;;;14.07;;
20844;SDS011;10583;49.084;8.646;2022-12-07T02:56:39;13.80;;;13.70;;
20844;SDS011;10583;49.084;8.646;2022-12-07T02:59:14;13.63;;;13.63;;
20844;SDS011;10583;49.084;8.646;2022-12-07T03:01:52;15.17;;;15.07;;
20844;SDS011;10583;49.084;8.646;2022-12-07T03:04:31;15.97;;;15.87;;
20844;SDS011;10583;49.084;8.646;2022-12-07T03:07:06;16.83;;;16.73;;
20844;SDS011;10583;49.084;8.646;2022-12-07T03:09:42;16.93;;;16.83;;
20844;SDS011;10583;49.084;8.646;2022-12-07T03:12:16;18.20;;;18.10;;
20844;SDS011;10583;49.084;8.646;2022-12-07T03:14:49;15.73;;;15.63;;
20844;SDS011;10583;49.084;8.646;2022-12-07T03:17:19;17.97;;;17.87;;
20844;SDS011;10583;49.084;8.646;2022-12-07T03:19:50;17.73;;;17.63;;
20844;SDS011;10583;49.084;8.646;2022-12-07T03:22:22;16.60;;;16.50;;
20844;SDS011;10583;49.084;8.646;2022-12-07T03:24:53;15.77;;;15.67;;
20844;SDS011;10583;49.084;8.646;2022-12-07T03:27:23;15.53;;;15.43;;
20844;SDS011;10583;49.084;8.646;2022-12-07T03:29:56;14.60;;;14.50;;
20844;SDS011;10583;49.084;8.646;2022-12-07T03:32:29;13.37;;;13.27;;
20844;SDS011;10583;49.084;8.646;2022-12-07T03:35:01;13.50;;;13.50;;
20844;SDS011;10583;49.084;8.646;2022-12-07T03:37:32;14.00;;;14.00;;
20844;SDS011;10583;49.084;8.646;2022-12-07T03:40:03;13.90;;;13.80;;
20844;SDS011;10583;49.084;8.646;2022-12-07T03:42:36;14.10;;;14.00;;
20844;SDS011;10583;49.084;8.646;2022-12-07T03:45:04;15.90;;;15.80;;
20844;SDS011;10583;49.084;8.646;2022-12-07T03:47:33;14.03;;;13.93;;
20844;SDS011;10583;49.084;8.646;2022-12-07T03:50:06;14.20;;;14.10;;
20844;SDS011;10583;49.084;8.646;2022-12-07T03:52:39;13.60;;;13.53;;
20844;SDS011;10583;49.084;8.646;2022-12-07T03:55:08;14.07;;;13.97;;
20844;SDS011;10583;49.084;8.646;2022-12-07T03:57:40;12.80;;;12.80;;
20844;SDS011;10583;49.084;8.646;2022-12-07T04:00:11;13.03;;;13.03;;
20844;SDS011;10583;49.084;8.646;2022-12-07T04:02:38;12.40;;;12.40;;
20844;SDS011;10583;49.084;8.646;2022-12-07T04:05:06;14.17;;;14.07;;
20844;SDS011;10583;49.084;8.646;2022-12-07T04:07:34;12.13;;;12.13;;
20844;SDS011;10583;49.084;8.646;2022-12-07T04:10:00;12.90;;;12.90;;
20844;SDS011;10583;49.084;8.646;2022-12-07T04:12:27;14.70;;;14.60;;
20844;SDS011;10583;49.084;8.646;2022-12-07T04:14:54;14.80;;;14.70;;
20844;SDS011;10583;49.084;8.646;2022-12-07T04:17:22;14.37;;;14.27;;
20844;SDS011;10583;49.084;8.646;2022-12-07T04:19:49;15.43;;;15.33;;
20844;SDS011;10583;49.084;8.646;2022-12-07T04:22:15;15.10;;;15.00;;
20844;SDS011;10583;49.084;8.646;2022-12-07T04:24:42;16.03;;;15.93;;
20844;SDS011;10583;49.084;8.646;2022-12-07T04:27:09;15.10;;;15.00;;
20844;SDS011;10583;49.084;8.646;2022-12-07T04:29:35;15.97;;;15.87;;
20844;SDS011;10583;49.084;8.646;2022-12-07T04:32:02;14.33;;;14.27;;
20844;SDS011;10583;49.084;8.646;2022-12-07T04:34:30;15.63;;;15.53;;
20844;SDS011;10583;49.084;8.646;2022-12-07T04:36:57;16.77;;;16.67;;
20844;SDS011;10583;49.084;8.646;2022-12-07T04:39:26;15.20;;;15.10;;
20844;SDS011;10583;49.084;8.646;2022-12-07T04:41:53;15.80;;;15.70;;
20844;SDS011;10583;49.084;8.646;2022-12-07T04:44:20;16.83;;;16.73;;
20844;SDS011;10583;49.084;8.646;2022-12-07T04:46:48;15.47;;;15.37;;
20844;SDS011;10583;49.084;8.646;2022-12-07T04:49:15;15.47;;;15.37;;
20844;SDS011;10583;49.084;8.646;2022-12-07T04:51:44;16.40;;;16.30;;
20844;SDS011;10583;49.084;8.646;2022-12-07T04:54:11;16.03;;;15.93;;
20844;SDS011;10583;49.084;8.646;2022-12-07T04:56:38;16.27;;;16.17;;
20844;SDS011;10583;49.084;8.646;2022-12-07T04:59:05;15.33;;;15.23;;
20844;SDS011;10583;49.084;8.646;2022-12-07T05:01:32;15.70;;;15.60;;
20844;SDS011;10583;49.084;8.646;2022-12-07T05:03:59;15.00;;;14.90;;
20844;SDS011;10583;49.084;8.646;2022-12-07T05:06:26;15.43;;;15.33;;
20844;SDS011;10583;49.084;8.646;2022-12-07T05:08:54;15.33;;;15.23;;
20844;SDS011;10583;49.084;8.646;2022-12-07T05:11:21;15.33;;;15.23;;
20844;SDS011;10583;49.084;8.646;2022-12-07T05:14:07;15.57;;;15.47;;
20844;SDS011;10583;49.084;8.646;2022-12-07T05:16:37;14.97;;;14.87;;
20844;SDS011;10583;49.084;8.646;2022-12-07T05:19:04;14.90;;;14.80;;
20844;SDS011;10583;49.084;8.646;2022-12-07T05:21:31;15.13;;;15.03;;
20844;SDS011;10583;49.084;8.646;2022-12-07T05:24:00;14.97;;;14.87;;
20844;SDS011;10583;49.084;8.646;2022-12-07T05:26:26;14.07;;;14.00;;
20844;SDS011;10583;49.084;8.646;2022-12-07T05:28:53;13.97;;;13.87;;
20844;SDS011;10583;49.084;8.646;2022-12-07T05:31:21;14.30;;;14.20;;
20844;SDS011;10583;49.084;8.646;2022-12-07T05:33:50;13.13;;;13.03;;
20844;SDS011;10583;49.084;8.646;2022-12-07T05:36:17;14.53;;;14.43;;
20844;SDS011;10583;49.084;8.646;2022-12-07T05:38:43;14.73;;;14.63;;
20844;SDS011;10583;49.084;8.646;2022-12-07T05:41:13;12.30;;;12.30;;
20844;SDS011;10583;49.084;8.646;2022-12-07T05:43:55;13.63;;;13.63;;
20844;SDS011;10583;49.084;8.646;2022-12-07T05:46:22;14.07;;;13.97;;
20844;SDS011;10583;49.084;8.646;2022-12-07T05:48:49;13.57;;;13.50;;
20844;SDS011;10583;49.084;8.646;2022-12-07T05:51:15;14.07;;;14.07;;
20844;SDS011;10583;49.084;8.646;2022-12-07T05:53:42;13.80;;;13.70;;
20844;SDS011;10583;49.084;8.646;2022-12-07T05:56:09;14.03;;;13.93;;
20844;SDS011;10583;49.084;8.646;2022-12-07T05:58:37;13.63;;;13.53;;
20844;SDS011;10583;49.084;8.646;2022-12-07T06:01:21;14.57;;;14.47;;
20844;SDS011;10583;49.084;8.646;2022-12-07T06:03:48;14.50;;;14.40;;
20844;SDS011;10583;49.084;8.646;2022-12-07T06:06:14;13.73;;;13.73;;
20844;SDS011;10583;49.084;8.646;2022-12-07T06:08:41;14.40;;;14.30;;
20844;SDS011;10583;49.084;8.646;2022-12-07T06:11:08;14.00;;;14.00;;
20844;SDS011;10583;49.084;8.646;2022-12-07T06:13:54;14.13;;;14.03;;
20844;SDS011;10583;49.084;8.646;2022-12-07T06:16:20;14.03;;;13.93;;
20844;SDS011;10583;49.084;8.646;2022-12-07T06:18:47;13.57;;;13.47;;
20844;SDS011;10583;49.084;8.646;2022-12-07T06:21:14;13.87;;;13.77;;
20844;SDS011;10583;49.084;8.646;2022-12-07T06:23:40;14.17;;;14.07;;
20844;SDS011;10583;49.084;8.646;2022-12-07T06:26:07;15.33;;;15.23;;
20844;SDS011;10583;49.084;8.646;2022-12-07T06:28:34;13.97;;;13.87;;
20844;SDS011;10583;49.084;8.646;2022-12-07T06:31:02;14.23;;;14.13;;
20844;SDS011;10583;49.084;8.646;2022-12-07T06:33:29;13.43;;;13.33;;
20844;SDS011;10583;49.084;8.646;2022-12-07T06:35:56;13.93;;;13.83;;
20844;SDS011;10583;49.084;8.646;2022-12-07T06:38:22;13.87;;;13.83;;
20844;SDS011;10583;49.084;8.646;2022-12-07T06:40:49;13.83;;;13.83;;
20844;SDS011;10583;49.084;8.646;2022-12-07T06:43:16;14.23;;;14.13;;
20844;SDS011;10583;49.084;8.646;2022-12-07T06:45:43;14.43;;;14.33;;
20844;SDS011;10583;49.084;8.646;2022-12-07T06:48:12;12.93;;;12.93;;
20844;SDS011;10583;49.084;8.646;2022-12-07T06:50:39;14.20;;;14.10;;
20844;SDS011;10583;49.084;8.646;2022-12-07T06:53:07;13.30;;;13.30;;
20844;SDS011;10583;49.084;8.646;2022-12-07T06:55:35;14.03;;;13.93;;
20844;SDS011;10583;49.084;8.646;2022-12-07T06:58:02;13.57;;;13.47;;
20844;SDS011;10583;49.084;8.646;2022-12-07T07:00:29;12.30;;;12.20;;
20844;SDS011;10583;49.084;8.646;2022-12-07T07:02:56;13.40;;;13.40;;
20844;SDS011;10583;49.084;8.646;2022-12-07T07:05:24;13.50;;;13.50;;
20844;SDS011;10583;49.084;8.646;2022-12-07T07:07:51;13.53;;;13.43;;
20844;SDS011;10583;49.084;8.646;2022-12-07T07:10:18;12.70;;;12.70;;
20844;SDS011;10583;49.084;8.646;2022-12-07T07:12:44;12.77;;;12.70;;
20844;SDS011;10583;49.084;8.646;2022-12-07T07:15:11;11.83;;;11.83;;
20844;SDS011;10583;49.084;8.646;2022-12-07T07:17:38;11.27;;;11.27;;
20844;SDS011;10583;49.084;8.646;2022-12-07T07:20:05;11.87;;;11.87;;
20844;SDS011;10583;49.084;8.646;2022-12-07T07:22:33;11.40;;;11.40;;
20844;SDS011;10583;49.084;8.646;2022-12-07T07:25:00;12.83;;;12.83;;
20844;SDS011;10583;49.084;8.646;2022-12-07T07:27:27;12.80;;;12.80;;
20844;SDS011;10583;49.084;8.646;2022-12-07T07:29:54;12.10;;;12.10;;
20844;SDS011;10583;49.084;8.646;2022-12-07T07:32:20;12.87;;;12.87;;
20844;SDS011;10583;49.084;8.646;2022-12-07T07:34:47;11.47;;;11.47;;
20844;SDS011;10583;49.084;8.646;2022-12-07T07:37:14;12.83;;;12.83;;
20844;SDS011;10583;49.084;8.646;2022-12-07T07:39:42;12.03;;;12.03;;
20844;SDS011;10583;49.084;8.646;2022-12-07T07:42:09;11.80;;;11.80;;
20844;SDS011;10583;49.084;8.646;2022-12-07T07:44:35;11.87;;;11.77;;
20844;SDS011;10583;49.084;8.646;2022-12-07T07:47:02;11.93;;;11.93;;
20844;SDS011;10583;49.084;8.646;2022-12-07T07:49:29;11.00;;;11.00;;
20844;SDS011;10583;49.084;8.646;2022-12-07T07:51:56;11.27;;;11.27;;
20844;SDS011;10583;49.084;8.646;2022-12-07T07:54:23;11.37;;;11.27;;
20844;SDS011;10583;49.084;8.646;2022-12-07T07:56:51;10.37;;;10.37;;
20844;SDS011;10583;49.084;8.646;2022-12-07T07:59:18;11.57;;;11.57;;
20844;SDS011;10583;49.084;8.646;2022-12-07T08:01:45;11.63;;;11.53;;
20844;SDS011;10583;49.084;8.646;2022-12-07T08:04:11;10.83;;;10.83;;
20844;SDS011;10583;49.084;8.646;2022-12-07T08:06:38;11.37;;;11.37;;
20844;SDS011;10583;49.084;8.646;2022-12-07T08:09:07;10.83;;;10.83;;
20844;SDS011;10583;49.084;8.646;2022-12-07T08:11:34;11.33;;;11.33;;
20844;SDS011;10583;49.084;8.646;2022-12-07T08:14:02;10.63;;;10.63;;
20844;SDS011;10583;49.084;8.646;2022-12-07T08:16:29;10.77;;;10.77;;
20844;SDS011;10583;49.084;8.646;2022-12-07T08:18:56;11.07;;;11.07;;
20844;SDS011;10583;49.084;8.646;2022-12-07T08:21:22;10.97;;;10.97;;
20844;SDS011;10583;49.084;8.646;2022-12-07T08:23:49;10.40;;;10.40;;
20844;SDS011;10583;49.084;8.646;2022-12-07T08:26:16;10.87;;;10.87;;
20844;SDS011;10583;49.084;8.646;2022-12-07T08:28:43;11.30;;;11.30;;
20844;SDS011;10583;49.084;8.646;2022-12-07T08:31:13;11.93;;;11.93;;
20844;SDS011;10583;49.084;8.646;2022-12-07T08:33:41;12.03;;;12.03;;
20844;SDS011;10583;49.084;8.646;2022-12-07T08:36:09;11.33;;;11.33;;
20844;SDS011;10583;49.084;8.646;2022-12-07T08:38:37;13.10;;;13.10;;
20844;SDS011;10583;49.084;8.646;2022-12-07T08:41:05;11.90;;;11.90;;
20844;SDS011;10583;49.084;8.646;2022-12-07T08:43:33;12.07;;;12.07;;
20844;SDS011;10583;49.084;8.646;2022-12-07T08:46:03;10.60;;;10.60;;
20844;SDS011;10583;49.084;8.646;2022-12-07T08:48:33;11.20;;;11.20;;
20844;SDS011;10583;49.084;8.646;2022-12-07T08:51:03;11.77;;;11.77;;
20844;SDS011;10583;49.084;8.646;2022-12-07T08:53:30;11.80;;;11.80;;
20844;SDS011;10583;49.084;8.646;2022-12-07T08:55:57;10.57;;;10.57;;
20844;SDS011;10583;49.084;8.646;2022-12-07T08:58:24;10.87;;;10.87;;
20844;SDS011;10583;49.084;8.646;2022-12-07T09:00:50;11.40;;;11.40;;
20844;SDS011;10583;49.084;8.646;2022-12-07T09:03:17;11.13;;;11.13;;
20844;SDS011;10583;49.084;8.646;2022-12-07T09:05:45;10.83;;;10.83;;
20844;SDS011;10583;49.084;8.646;2022-12-07T09:08:12;10.17;;;10.17;;
20844;SDS011;10583;49.084;8.646;2022-12-07T09:10:39;10.73;;;10.73;;
20844;SDS011;10583;49.084;8.646;2022-12-07T09:13:05;10.33;;;10.33;;
20844;SDS011;10583;49.084;8.646;2022-12-07T09:15:32;10.93;;;10.93;;
20844;SDS011;10583;49.084;8.646;2022-12-07T09:17:59;11.07;;;11.07;;
20844;SDS011;10583;49.084;8.646;2022-12-07T09:20:26;10.80;;;10.80;;
20844;SDS011;10583;49.084;8.646;2022-12-07T09:22:54;9.90;;;9.90;;
20844;SDS011;10583;49.084;8.646;2022-12-07T09:25:20;10.33;;;10.33;;
20844;SDS011;10583;49.084;8.646;2022-12-07T09:27:47;10.87;;;10.87;;
20844;SDS011;10583;49.084;8.646;2022-12-07T09:30:14;10.37;;;10.37;;
20844;SDS011;10583;49.084;8.646;2022-12-07T09:32:41;10.87;;;10.87;;
20844;SDS011;10583;49.084;8.646;2022-12-07T09:35:07;10.87;;;10.87;;
20844;SDS011;10583;49.084;8.646;2022-12-07T09:37:34;10.90;;;10.90;;
20844;SDS011;10583;49.084;8.646;2022-12-07T09:40:03;10.43;;;10.43;;
20844;SDS011;10583;49.084;8.646;2022-12-07T09:42:33;10.20;;;10.10;;
20844;SDS011;10583;49.084;8.646;2022-12-07T09:45:02;11.40;;;11.40;;
20844;SDS011;10583;49.084;8.646;2022-12-07T09:47:32;10.73;;;10.73;;
20844;SDS011;10583;49.084;8.646;2022-12-07T09:50:00;11.77;;;11.77;;
20844;SDS011;10583;49.084;8.646;2022-12-07T09:52:30;10.93;;;10.87;;
20844;SDS011;10583;49.084;8.646;2022-12-07T09:54:57;10.70;;;10.70;;
20844;SDS011;10583;49.084;8.646;2022-12-07T09:57:27;11.97;;;11.97;;
20844;SDS011;10583;49.084;8.646;2022-12-07T09:59:56;12.20;;;12.10;;
20844;SDS011;10583;49.084;8.646;2022-12-07T10:02:33;11.03;;;11.03;;
20844;SDS011;10583;49.084;8.646;2022-12-07T10:05:03;11.73;;;11.73;;
20844;SDS011;10583;49.084;8.646;2022-12-07T10:07:31;10.70;;;10.70;;
20844;SDS011;10583;49.084;8.646;2022-12-07T10:09:58;11.80;;;11.80;;
20844;SDS011;10583;49.084;8.646;2022-12-07T10:12:26;12.00;;;12.00;;
20844;SDS011;10583;49.084;8.646;2022-12-07T10:14:54;12.10;;;12.00;;
20844;SDS011;10583;49.084;8.646;2022-12-07T10:17:37;12.23;;;12.23;;
20844;SDS011;10583;49.084;8.646;2022-12-07T10:20:13;12.83;;;12.83;;
20844;SDS011;10583;49.084;8.646;2022-12-07T10:22:55;12.90;;;12.90;;
20844;SDS011;10583;49.084;8.646;2022-12-07T10:25:25;12.73;;;12.63;;
20844;SDS011;10583;49.084;8.646;2022-12-07T10:27:58;13.03;;;13.00;;
20844;SDS011;10583;49.084;8.646;2022-12-07T10:30:27;12.27;;;12.27;;
20844;SDS011;10583;49.084;8.646;2022-12-07T10:32:55;13.20;;;13.10;;
20844;SDS011;10583;49.084;8.646;2022-12-07T10:35:23;13.07;;;13.00;;
20844;SDS011;10583;49.084;8.646;2022-12-07T10:37:53;12.43;;;12.43;;
20844;SDS011;10583;49.084;8.646;2022-12-07T10:40:25;12.03;;;12.03;;
20844;SDS011;10583;49.084;8.646;2022-12-07T10:43:03;13.13;;;13.13;;
20844;SDS011;10583;49.084;8.646;2022-12-07T10:45:32;12.57;;;12.47;;
20844;SDS011;10583;49.084;8.646;2022-12-07T10:48:02;12.57;;;12.57;;
20844;SDS011;10583;49.084;8.646;2022-12-07T10:50:45;12.80;;;12.77;;
20844;SDS011;10583;49.084;8.646;2022-12-07T10:53:39;13.23;;;13.13;;
20844;SDS011;10583;49.084;8.646;2022-12-07T10:56:19;12.50;;;12.40;;
20844;SDS011;10583;49.084;8.646;2022-12-07T10:59:08;13.20;;;13.10;;
20844;SDS011;10583;49.084;8.646;2022-12-07T11:01:57;12.10;;;12.10;;
20844;SDS011;10583;49.084;8.646;2022-12-07T11:04:35;11.90;;;11.90;;
20844;SDS011;10583;49.084;8.646;2022-12-07T11:07:10;12.67;;;12.67;;
20844;SDS011;10583;49.084;8.646;2022-12-07T11:09:52;11.97;;;11.97;;
20844;SDS011;10583;49.084;8.646;2022-12-07T11:12:32;12.40;;;12.30;;
20844;SDS011;10583;49.084;8.646;2022-12-07T11:15:12;10.77;;;10.77;;
20844;SDS011;10583;49.084;8.646;2022-12-07T11:17:45;12.03;;;12.03;;
20844;SDS011;10583;49.084;8.646;2022-12-07T11:20:24;12.60;;;12.50;;
20844;SDS011;10583;49.084;8.646;2022-12-07T11:23:03;11.73;;;11.73;;
20844;SDS011;10583;49.084;8.646;2022-12-07T11:25:44;11.63;;;11.53;;
20844;SDS011;10583;49.084;8.646;2022-12-07T11:28:23;11.77;;;11.77;;
20844;SDS011;10583;49.084;8.646;2022-12-07T11:31:02;12.17;;;12.17;;
20844;SDS011;10583;49.084;8.646;2022-12-07T11:33:40;11.70;;;11.70;;
20844;SDS011;10583;49.084;8.646;2022-12-07T11:36:16;12.47;;;12.47;;
20844;SDS011;10583;49.084;8.646;2022-12-07T11:38:57;12.43;;;12.43;;
20844;SDS011;10583;49.084;8.646;2022-12-07T11:41:28;12.60;;;12.60;;
20844;SDS011;10583;49.084;8.646;2022-12-07T11:44:01;11.67;;;11.67;;
20844;SDS011;10583;49.084;8.646;2022-12-07T11:46:39;12.03;;;12.03;;
20844;SDS011;10583;49.084;8.646;2022-12-07T11:49:18;13.37;;;13.27;;
20844;SDS011;10583;49.084;8.646;2022-12-07T11:51:51;11.57;;;11.57;;
20844;SDS011;10583;49.084;8.646;2022-12-07T11:54:24;12.67;;;12.57;;
20844;SDS011;10583;49.084;8.646;2022-12-07T11:56:54;12.03;;;12.03;;
20844;SDS011;10583;49.084;8.646;2022-12-07T11:59:23;11.87;;;11.87;;
20844;SDS011;10583;49.084;8.646;2022-12-07T12:02:00;12.10;;;12.10;;
20844;SDS011;10583;49.084;8.646;2022-12-07T12:04:42;11.73;;;11.73;;
20844;SDS011;10583;49.084;8.646;2022-12-07T12:07:17;12.70;;;12.63;;
20844;SDS011;10583;49.084;8.646;2022-12-07T12:09:48;12.27;;;12.27;;
20844;SDS011;10583;49.084;8.646;2022-12-07T12:12:22;12.27;;;12.27;;
20844;SDS011;10583;49.084;8.646;2022-12-07T12:15:16;12.90;;;12.90;;
20844;SDS011;10583;49.084;8.646;2022-12-07T12:17:59;12.67;;;12.63;;
20844;SDS011;10583;49.084;8.646;2022-12-07T12:20:46;12.27;;;12.17;;
20844;SDS011;10583;49.084;8.646;2022-12-07T12:23:19;13.70;;;13.63;;
20844;SDS011;10583;49.084;8.646;2022-12-07T12:25:48;12.67;;;12.67;;
20844;SDS011;10583;49.084;8.646;2022-12-07T12:28:19;14.07;;;13.97;;
20844;SDS011;10583;49.084;8.646;2022-12-07T12:31:04;13.57;;;13.47;;
20844;SDS011;10583;49.084;8.646;2022-12-07T12:33:35;13.60;;;13.50;;
20844;SDS011;10583;49.084;8.646;2022-12-07T12:36:23;12.87;;;12.77;;
20844;SDS011;10583;49.084;8.646;2022-12-07T12:38:52;13.03;;;13.03;;
20844;SDS011;10583;49.084;8.646;2022-12-07T12:41:55;12.83;;;12.73;;
20844;SDS011;10583;49.084;8.646;2022-12-07T12:44:39;12.70;;;12.67;;
20844;SDS011;10583;49.084;8.646;2022-12-07T12:47:52;12.63;;;12.63;;
20844;SDS011;10583;49.084;8.646;2022-12-07T12:50:26;12.57;;;12.57;;
20844;SDS011;10583;49.084;8.646;2022-12-07T12:52:59;12.47;;;12.47;;
20844;SDS011;10583;49.084;8.646;2022-12-07T12:55:50;12.73;;;12.73;;
20844;SDS011;10583;49.084;8.646;2022-12-07T12:58:41;12.63;;;12.63;;
20844;SDS011;10583;49.084;8.646;2022-12-07T13:01:36;12.10;;;12.10;;
20844;SDS011;10583;49.084;8.646;2022-12-07T13:04:27;12.33;;;12.33;;
20844;SDS011;10583;49.084;8.646;2022-12-07T13:07:10;12.33;;;12.33;;
20844;SDS011;10583;49.084;8.646;2022-12-07T13:09:41;11.77;;;11.73;;
20844;SDS011;10583;49.084;8.646;2022-12-07T13:12:12;13.63;;;13.53;;
20844;SDS011;10583;49.084;8.646;2022-12-07T13:14:51;13.83;;;13.73;;
20844;SDS011;10583;49.084;8.646;2022-12-07T13:23:13;13.40;;;13.30;;
20844;SDS011;10583;49.084;8.646;2022-12-07T13:25:48;13.00;;;13.00;;
20844;SDS011;10583;49.084;8.646;2022-12-07T13:28:20;14.03;;;13.93;;
20844;SDS011;10583;49.084;8.646;2022-12-07T13:30:55;14.13;;;14.03;;
20844;SDS011;10583;49.084;8.646;2022-12-07T13:33:28;13.03;;;12.93;;
20844;SDS011;10583;49.084;8.646;2022-12-07T13:35:56;14.20;;;14.10;;
20844;SDS011;10583;49.084;8.646;2022-12-07T13:38:28;14.33;;;14.23;;
20844;SDS011;10583;49.084;8.646;2022-12-07T13:41:00;12.93;;;12.93;;
20844;SDS011;10583;49.084;8.646;2022-12-07T13:43:42;13.63;;;13.63;;
20844;SDS011;10583;49.084;8.646;2022-12-07T13:46:14;14.67;;;14.57;;
20844;SDS011;10583;49.084;8.646;2022-12-07T13:48:44;13.63;;;13.53;;
20844;SDS011;10583;49.084;8.646;2022-12-07T13:51:16;14.93;;;14.83;;
20844;SDS011;10583;49.084;8.646;2022-12-07T13:53:50;13.87;;;13.77;;
20844;SDS011;10583;49.084;8.646;2022-12-07T13:56:20;14.67;;;14.57;;
20844;SDS011;10583;49.084;8.646;2022-12-07T13:58:48;14.97;;;14.87;;
20844;SDS011;10583;49.084;8.646;2022-12-07T14:01:15;15.53;;;15.43;;
20844;SDS011;10583;49.084;8.646;2022-12-07T14:03:43;14.77;;;14.67;;
20844;SDS011;10583;49.084;8.646;2022-12-07T14:06:18;15.13;;;15.03;;
20844;SDS011;10583;49.084;8.646;2022-12-07T14:08:51;14.80;;;14.70;;
20844;SDS011;10583;49.084;8.646;2022-12-07T14:11:33;15.53;;;15.43;;
20844;SDS011;10583;49.084;8.646;2022-12-07T14:14:01;15.27;;;15.17;;
20844;SDS011;10583;49.084;8.646;2022-12-07T14:16:30;15.20;;;15.10;;
20844;SDS011;10583;49.084;8.646;2022-12-07T14:19:00;15.53;;;15.43;;
20844;SDS011;10583;49.084;8.646;2022-12-07T14:21:28;14.47;;;14.37;;
20844;SDS011;10583;49.084;8.646;2022-12-07T14:24:08;14.83;;;14.73;;
20844;SDS011;10583;49.084;8.646;2022-12-07T14:26:37;15.53;;;15.43;;
20844;SDS011;10583;49.084;8.646;2022-12-07T14:32:20;14.60;;;14.50;;
20844;SDS011;10583;49.084;8.646;2022-12-07T14:35:00;14.50;;;14.40;;
20844;SDS011;10583;49.084;8.646;2022-12-07T14:37:29;14.67;;;14.57;;
20844;SDS011;10583;49.084;8.646;2022-12-07T14:39:57;14.70;;;14.60;;
20844;SDS011;10583;49.084;8.646;2022-12-07T14:42:26;13.63;;;13.53;;
20844;SDS011;10583;49.084;8.646;2022-12-07T14:44:55;14.13;;;14.03;;
20844;SDS011;10583;49.084;8.646;2022-12-07T14:47:22;13.03;;;12.93;;
20844;SDS011;10583;49.084;8.646;2022-12-07T14:49:49;13.30;;;13.20;;
20844;SDS011;10583;49.084;8.646;2022-12-07T14:52:16;13.73;;;13.63;;
20844;SDS011;10583;49.084;8.646;2022-12-07T14:54:46;12.67;;;12.67;;
20844;SDS011;10583;49.084;8.646;2022-12-07T14:57:15;12.77;;;12.70;;
20844;SDS011;10583;49.084;8.646;2022-12-07T14:59:41;13.00;;;12.90;;